sensor_id;sensor_type;location;lat;lon;timestamp;pressure;altitude;pressure_sealevel;temperature;humidity
11017;BME280;54687;50.800;6.772;2023-12-20T00:01:25;95712.78;;;-144.06;28.43
11017;BME280;54687;50.800;6.772;2023-12-20T00:03:52;95721.25;;;-144.06;28.32
11017;BME280;54687;50.800;6.772;2023-12-20T00:06:19;95725.50;;;-144.06;28.35
11017;BME280;54687;50.800;6.772;2023-12-20T00:08:47;95674.69;;;-144.06;28.33
11017;BME280;54687;50.800;6.772;2023-12-20T00:11:13;95619.63;;;-144.06;28.28
11017;BME280;54687;50.800;6.772;2023-12-20T00:13:40;95645.03;;;-144.06;28.15
11017;BME280;54687;50.800;6.772;2023-12-20T00:16:06;95670.44;;;-144.06;28.18
11017;BME280;54687;50.800;6.772;2023-12-20T00:18:33;95649.28;;;-144.06;28.31
11017;BME280;54687;50.800;6.772;2023-12-20T00:20:59;95632.34;;;-144.06;28.03
11017;BME280;54687;50.800;6.772;2023-12-20T00:23:27;95645.03;;;-144.06;28.31
11017;BME280;54687;50.800;6.772;2023-12-20T00:25:55;95628.09;;;-144.06;28.16
11017;BME280;54687;50.800;6.772;2023-12-20T00:28:22;95630.22;;;-144.06;28.06
11017;BME280;54687;50.800;6.772;2023-12-20T00:30:48;95638.69;;;-144.06;28.22
11017;BME280;54687;50.800;6.772;2023-12-20T00:33:15;95594.22;;;-144.06;28.35
11017;BME280;54687;50.800;6.772;2023-12-20T00:35:42;95657.75;;;-144.06;28.36
11017;BME280;54687;50.800;6.772;2023-12-20T00:38:08;95659.84;;;-144.06;28.26
11017;BME280;54687;50.800;6.772;2023-12-20T00:40:36;95700.09;;;-144.06;28.32
11017;BME280;54687;50.800;6.772;2023-12-20T00:43:04;95657.75;;;-144.06;28.51
11017;BME280;54687;50.800;6.772;2023-12-20T00:45:30;95719.16;;;-144.06;28.46
11017;BME280;54687;50.800;6.772;2023-12-20T00:47:57;95714.91;;;-144.06;28.22
11017;BME280;54687;50.800;6.772;2023-12-20T00:50:24;95683.16;;;-144.06;28.41
11017;BME280;54687;50.800;6.772;2023-12-20T00:52:51;95704.31;;;-144.06;28.23
11017;BME280;54687;50.800;6.772;2023-12-20T00:55:18;95717.03;;;-144.06;28.48
11017;BME280;54687;50.800;6.772;2023-12-20T00:57:44;95750.91;;;-144.06;28.47
11017;BME280;54687;50.800;6.772;2023-12-20T01:00:13;95733.97;;;-144.06;28.36
11017;BME280;54687;50.800;6.772;2023-12-20T01:02:39;95780.56;;;-144.06;28.71
11017;BME280;54687;50.800;6.772;2023-12-20T01:05:06;95886.44;;;-144.06;28.48
11017;BME280;54687;50.800;6.772;2023-12-20T01:07:34;95905.50;;;-144.06;28.82
11017;BME280;54687;50.800;6.772;2023-12-20T01:10:01;95801.72;;;-144.06;28.40
11017;BME280;54687;50.800;6.772;2023-12-20T01:12:27;95818.66;;;-144.06;28.46
11017;BME280;54687;50.800;6.772;2023-12-20T01:14:54;95850.44;;;-144.06;28.36
11017;BME280;54687;50.800;6.772;2023-12-20T01:17:22;95890.66;;;-144.06;28.70
11017;BME280;54687;50.800;6.772;2023-12-20T01:19:50;95861.03;;;-144.06;28.72
11017;BME280;54687;50.800;6.772;2023-12-20T01:22:18;95873.72;;;-144.06;28.60
11017;BME280;54687;50.800;6.772;2023-12-20T01:24:48;95880.06;;;-144.06;28.68
11017;BME280;54687;50.800;6.772;2023-12-20T01:27:26;95793.25;;;-144.06;28.45
11017;BME280;54687;50.800;6.772;2023-12-20T01:29:54;95939.38;;;-144.06;28.76
11017;BME280;54687;50.800;6.772;2023-12-20T01:32:23;95911.84;;;-144.06;28.80
11017;BME280;54687;50.800;6.772;2023-12-20T01:34:52;95941.50;;;-144.06;28.79
11017;BME280;54687;50.800;6.772;2023-12-20T01:37:20;95988.06;;;-144.06;28.64
11017;BME280;54687;50.800;6.772;2023-12-20T01:39:50;95979.59;;;-144.06;28.91
11017;BME280;54687;50.800;6.772;2023-12-20T01:42:21;95958.44;;;-144.06;28.85
11017;BME280;54687;50.800;6.772;2023-12-20T01:44:50;96115.13;;;-144.06;28.74
11017;BME280;54687;50.800;6.772;2023-12-20T01:47:20;96149.03;;;-144.06;29.04
11017;BME280;54687;50.800;6.772;2023-12-20T01:49:50;96047.38;;;-144.06;28.79
11017;BME280;54687;50.800;6.772;2023-12-20T01:52:19;96098.19;;;-144.06;28.82
11017;BME280;54687;50.800;6.772;2023-12-20T01:54:47;96199.84;;;-144.06;28.64
11017;BME280;54687;50.800;6.772;2023-12-20T01:57:16;96208.31;;;-144.06;28.65
11017;BME280;54687;50.800;6.772;2023-12-20T01:59:44;96227.38;;;-144.06;28.46
11017;BME280;54687;50.800;6.772;2023-12-20T02:02:11;96199.84;;;-144.06;28.64
11017;BME280;54687;50.800;6.772;2023-12-20T02:04:40;96235.84;;;-144.06;28.53
11017;BME280;54687;50.800;6.772;2023-12-20T02:07:11;96273.97;;;-144.06;28.35
11017;BME280;54687;50.800;6.772;2023-12-20T02:09:40;96254.91;;;-144.06;28.39
11017;BME280;54687;50.800;6.772;2023-12-20T02:12:08;96225.25;;;-144.06;28.23
11017;BME280;54687;50.800;6.772;2023-12-20T02:14:36;96309.97;;;-144.06;28.23
11017;BME280;54687;50.800;6.772;2023-12-20T02:17:03;96309.97;;;-144.06;28.30
11017;BME280;54687;50.800;6.772;2023-12-20T02:19:29;96309.97;;;-144.06;28.45
11017;BME280;54687;50.800;6.772;2023-12-20T02:22:09;96322.69;;;-144.06;28.43
11017;BME280;54687;50.800;6.772;2023-12-20T02:24:35;96324.81;;;-144.06;28.38
11017;BME280;54687;50.800;6.772;2023-12-20T02:27:03;96309.97;;;-144.06;28.31
11017;BME280;54687;50.800;6.772;2023-12-20T02:29:30;96297.25;;;-144.06;28.39
11017;BME280;54687;50.800;6.772;2023-12-20T02:31:57;96246.44;;;-144.06;28.18
11017;BME280;54687;50.800;6.772;2023-12-20T02:34:24;96267.63;;;-144.06;28.22
11017;BME280;54687;50.800;6.772;2023-12-20T02:36:50;96263.38;;;-144.06;28.19
11017;BME280;54687;50.800;6.772;2023-12-20T02:39:19;96244.31;;;-144.06;28.41
11017;BME280;54687;50.800;6.772;2023-12-20T02:41:45;96278.22;;;-144.06;28.31
11017;BME280;54687;50.800;6.772;2023-12-20T02:44:12;96276.09;;;-144.06;28.23
11017;BME280;54687;50.800;6.772;2023-12-20T02:46:38;96252.78;;;-144.06;28.30
11017;BME280;54687;50.800;6.772;2023-12-20T02:49:05;96276.09;;;-144.06;28.17
11017;BME280;54687;50.800;6.772;2023-12-20T02:51:32;96221.03;;;-144.06;28.20
11017;BME280;54687;50.800;6.772;2023-12-20T02:53:58;96197.72;;;-144.06;28.02
11017;BME280;54687;50.800;6.772;2023-12-20T02:56:26;96170.19;;;-144.06;28.14
11017;BME280;54687;50.800;6.772;2023-12-20T02:58:53;96161.72;;;-144.06;28.06
11017;BME280;54687;50.800;6.772;2023-12-20T03:01:20;96165.97;;;-144.06;28.12
11017;BME280;54687;50.800;6.772;2023-12-20T03:03:46;96193.50;;;-144.06;28.01
11017;BME280;54687;50.800;6.772;2023-12-20T03:06:16;96250.69;;;-144.06;28.14
11017;BME280;54687;50.800;6.772;2023-12-20T03:08:44;96165.97;;;-144.06;28.12
11017;BME280;54687;50.800;6.772;2023-12-20T03:11:10;96168.09;;;-144.06;28.01
11017;BME280;54687;50.800;6.772;2023-12-20T03:13:38;96161.72;;;-144.06;28.05
11017;BME280;54687;50.800;6.772;2023-12-20T03:16:08;96210.44;;;-144.06;28.02
11017;BME280;54687;50.800;6.772;2023-12-20T03:18:34;96174.44;;;-144.06;28.06
11017;BME280;54687;50.800;6.772;2023-12-20T03:21:01;96195.59;;;-144.06;27.97
11017;BME280;54687;50.800;6.772;2023-12-20T03:23:29;96153.25;;;-144.06;28.02
11017;BME280;54687;50.800;6.772;2023-12-20T03:25:57;96149.03;;;-144.06;28.04
11017;BME280;54687;50.800;6.772;2023-12-20T03:28:24;96123.59;;;-144.06;27.85
11017;BME280;54687;50.800;6.772;2023-12-20T03:30:52;96174.44;;;-144.06;27.97
11017;BME280;54687;50.800;6.772;2023-12-20T03:33:19;96161.72;;;-144.06;28.11
11017;BME280;54687;50.800;6.772;2023-12-20T03:35:45;96140.56;;;-144.06;28.04
11017;BME280;54687;50.800;6.772;2023-12-20T03:38:12;96174.44;;;-144.06;27.80
11017;BME280;54687;50.800;6.772;2023-12-20T03:40:39;96178.66;;;-144.06;28.13
11017;BME280;54687;50.800;6.772;2023-12-20T03:43:05;96168.09;;;-144.06;27.87
11017;BME280;54687;50.800;6.772;2023-12-20T03:45:32;96172.31;;;-144.06;27.89
11017;BME280;54687;50.800;6.772;2023-12-20T03:48:00;96136.31;;;-144.06;27.86
11017;BME280;54687;50.800;6.772;2023-12-20T03:50:26;96170.19;;;-144.06;27.99
11017;BME280;54687;50.800;6.772;2023-12-20T03:52:53;96142.66;;;-144.06;27.73
11017;BME280;54687;50.800;6.772;2023-12-20T03:55:19;96185.03;;;-144.06;27.75
11017;BME280;54687;50.800;6.772;2023-12-20T03:57:46;96149.03;;;-144.06;27.84
11017;BME280;54687;50.800;6.772;2023-12-20T04:00:13;96129.97;;;-144.06;27.67
11017;BME280;54687;50.800;6.772;2023-12-20T04:02:41;96191.38;;;-144.06;27.96
11017;BME280;54687;50.800;6.772;2023-12-20T04:05:09;96165.97;;;-144.06;27.74
11017;BME280;54687;50.800;6.772;2023-12-20T04:07:36;96149.03;;;-144.06;27.80
11017;BME280;54687;50.800;6.772;2023-12-20T04:10:03;96225.25;;;-144.06;27.93
11017;BME280;54687;50.800;6.772;2023-12-20T04:12:30;96153.25;;;-144.06;27.77
11017;BME280;54687;50.800;6.772;2023-12-20T04:14:57;96153.25;;;-144.06;27.94
11017;BME280;54687;50.800;6.772;2023-12-20T04:17:24;96178.66;;;-144.06;27.72
11017;BME280;54687;50.800;6.772;2023-12-20T04:19:51;96204.09;;;-144.06;27.78
11017;BME280;54687;50.800;6.772;2023-12-20T04:22:19;96254.91;;;-144.06;27.85
11017;BME280;54687;50.800;6.772;2023-12-20T04:24:45;96214.66;;;-144.06;27.72
11017;BME280;54687;50.800;6.772;2023-12-20T04:27:12;96197.72;;;-144.06;28.12
11017;BME280;54687;50.800;6.772;2023-12-20T04:29:38;96191.38;;;-144.06;27.90
11017;BME280;54687;50.800;6.772;2023-12-20T04:32:06;96182.91;;;-144.06;27.81
11017;BME280;54687;50.800;6.772;2023-12-20T04:34:32;96204.09;;;-144.06;27.95
11017;BME280;54687;50.800;6.772;2023-12-20T04:36:59;96157.50;;;-144.06;27.69
11017;BME280;54687;50.800;6.772;2023-12-20T04:39:28;96187.13;;;-144.06;27.84
11017;BME280;54687;50.800;6.772;2023-12-20T04:41:54;96170.19;;;-144.06;27.76
11017;BME280;54687;50.800;6.772;2023-12-20T04:44:21;96201.97;;;-144.06;27.77
11017;BME280;54687;50.800;6.772;2023-12-20T04:46:48;96263.38;;;-144.06;27.82
11017;BME280;54687;50.800;6.772;2023-12-20T04:49:14;96288.78;;;-144.06;27.84
11017;BME280;54687;50.800;6.772;2023-12-20T04:51:41;96309.97;;;-144.06;27.88
11017;BME280;54687;50.800;6.772;2023-12-20T04:54:07;96286.69;;;-144.06;28.11
11017;BME280;54687;50.800;6.772;2023-12-20T04:56:36;96259.16;;;-144.06;28.00
11017;BME280;54687;50.800;6.772;2023-12-20T04:59:03;96341.75;;;-144.06;28.32
11017;BME280;54687;50.800;6.772;2023-12-20T05:01:30;96295.16;;;-144.06;28.33
11017;BME280;54687;50.800;6.772;2023-12-20T05:03:56;96263.38;;;-144.06;28.07
11017;BME280;54687;50.800;6.772;2023-12-20T05:06:23;96254.91;;;-144.06;28.01
11017;BME280;54687;50.800;6.772;2023-12-20T05:08:50;96216.78;;;-144.06;27.84
11017;BME280;54687;50.800;6.772;2023-12-20T05:11:16;96263.38;;;-144.06;28.16
11017;BME280;54687;50.800;6.772;2023-12-20T05:13:44;96301.50;;;-144.06;28.03
11017;BME280;54687;50.800;6.772;2023-12-20T05:16:11;96244.31;;;-144.06;28.01
11017;BME280;54687;50.800;6.772;2023-12-20T05:18:39;96297.25;;;-144.06;27.85
11017;BME280;54687;50.800;6.772;2023-12-20T05:21:06;96286.69;;;-144.06;27.87
11017;BME280;54687;50.800;6.772;2023-12-20T05:23:33;96356.56;;;-144.06;28.08
11017;BME280;54687;50.800;6.772;2023-12-20T05:26:00;96320.56;;;-144.06;27.89
11017;BME280;54687;50.800;6.772;2023-12-20T05:28:26;96284.56;;;-144.06;27.92
11017;BME280;54687;50.800;6.772;2023-12-20T05:30:54;96318.44;;;-144.06;28.06
11017;BME280;54687;50.800;6.772;2023-12-20T05:33:21;96297.25;;;-144.06;27.97
11017;BME280;54687;50.800;6.772;2023-12-20T05:35:47;96339.63;;;-144.06;27.98
11017;BME280;54687;50.800;6.772;2023-12-20T05:38:14;96318.44;;;-144.06;28.03
11017;BME280;54687;50.800;6.772;2023-12-20T05:40:41;96360.81;;;-144.06;27.93
11017;BME280;54687;50.800;6.772;2023-12-20T05:43:08;96278.22;;;-144.06;27.84
11017;BME280;54687;50.800;6.772;2023-12-20T05:45:34;96305.75;;;-144.06;27.87
11017;BME280;54687;50.800;6.772;2023-12-20T05:48:02;96337.50;;;-144.06;28.01
11017;BME280;54687;50.800;6.772;2023-12-20T05:50:29;96322.69;;;-144.06;28.00
11017;BME280;54687;50.800;6.772;2023-12-20T05:52:56;96348.09;;;-144.06;28.06
11017;BME280;54687;50.800;6.772;2023-12-20T05:55:23;96318.44;;;-144.06;27.98
11017;BME280;54687;50.800;6.772;2023-12-20T05:57:49;96352.34;;;-144.06;27.98
11017;BME280;54687;50.800;6.772;2023-12-20T06:00:17;96318.44;;;-144.06;27.92
11017;BME280;54687;50.800;6.772;2023-12-20T06:02:44;96225.25;;;-144.06;28.06
11017;BME280;54687;50.800;6.772;2023-12-20T06:05:12;96337.50;;;-144.06;28.16
11017;BME280;54687;50.800;6.772;2023-12-20T06:07:40;96314.22;;;-144.06;27.92
11017;BME280;54687;50.800;6.772;2023-12-20T06:10:07;96326.91;;;-144.06;27.88
11017;BME280;54687;50.800;6.772;2023-12-20T06:12:33;96276.09;;;-144.06;28.06
11017;BME280;54687;50.800;6.772;2023-12-20T06:15:01;96356.56;;;-144.06;28.11
11017;BME280;54687;50.800;6.772;2023-12-20T06:17:28;96326.91;;;-144.06;28.17
11017;BME280;54687;50.800;6.772;2023-12-20T06:19:56;96331.16;;;-144.06;28.23
11017;BME280;54687;50.800;6.772;2023-12-20T06:22:24;96314.22;;;-144.06;28.23
11017;BME280;54687;50.800;6.772;2023-12-20T06:24:50;96341.75;;;-144.06;28.08
11017;BME280;54687;50.800;6.772;2023-12-20T06:27:17;96322.69;;;-144.06;27.97
11017;BME280;54687;50.800;6.772;2023-12-20T06:29:43;96318.44;;;-144.06;28.05
11017;BME280;54687;50.800;6.772;2023-12-20T06:32:10;96309.97;;;-144.06;27.95
11017;BME280;54687;50.800;6.772;2023-12-20T06:34:37;96254.91;;;-144.06;27.96
11017;BME280;54687;50.800;6.772;2023-12-20T06:37:04;96282.44;;;-144.06;27.94
11017;BME280;54687;50.800;6.772;2023-12-20T06:39:32;96263.38;;;-144.06;27.91
11017;BME280;54687;50.800;6.772;2023-12-20T06:41:59;96271.84;;;-144.06;27.89
11017;BME280;54687;50.800;6.772;2023-12-20T06:44:26;96252.78;;;-144.06;27.79
11017;BME280;54687;50.800;6.772;2023-12-20T06:46:52;96286.69;;;-144.06;27.67
11017;BME280;54687;50.800;6.772;2023-12-20T06:49:19;96244.31;;;-144.06;27.77
11017;BME280;54687;50.800;6.772;2023-12-20T06:51:46;96276.09;;;-144.06;27.85
11017;BME280;54687;50.800;6.772;2023-12-20T06:54:12;96223.13;;;-144.06;27.71
11017;BME280;54687;50.800;6.772;2023-12-20T06:56:40;96261.25;;;-144.06;27.59
11017;BME280;54687;50.800;6.772;2023-12-20T06:59:07;96259.16;;;-144.06;27.78
11017;BME280;54687;50.800;6.772;2023-12-20T07:01:34;96305.75;;;-144.06;27.78
11017;BME280;54687;50.800;6.772;2023-12-20T07:04:00;96309.97;;;-144.06;27.77
11017;BME280;54687;50.800;6.772;2023-12-20T07:06:27;96335.38;;;-144.06;27.82
11017;BME280;54687;50.800;6.772;2023-12-20T07:08:53;96246.44;;;-144.06;27.82
11017;BME280;54687;50.800;6.772;2023-12-20T07:11:20;96252.78;;;-144.06;27.71
11017;BME280;54687;50.800;6.772;2023-12-20T07:13:47;96339.63;;;-144.06;27.67
11017;BME280;54687;50.800;6.772;2023-12-20T07:16:14;96191.38;;;-144.06;27.65
11017;BME280;54687;50.800;6.772;2023-12-20T07:18:41;96193.50;;;-144.06;27.43
11017;BME280;54687;50.800;6.772;2023-12-20T07:21:08;96182.91;;;-144.06;27.46
11017;BME280;54687;50.800;6.772;2023-12-20T07:23:34;96208.31;;;-144.06;27.60
11017;BME280;54687;50.800;6.772;2023-12-20T07:26:01;96197.72;;;-144.06;27.72
11017;BME280;54687;50.800;6.772;2023-12-20T07:28:29;96216.78;;;-144.06;27.46
11017;BME280;54687;50.800;6.772;2023-12-20T07:30:57;96178.66;;;-144.06;27.52
11017;BME280;54687;50.800;6.772;2023-12-20T07:33:23;96189.25;;;-144.06;27.42
11017;BME280;54687;50.800;6.772;2023-12-20T07:35:50;96229.50;;;-144.06;27.33
11017;BME280;54687;50.800;6.772;2023-12-20T07:38:17;96233.72;;;-144.06;27.69
11017;BME280;54687;50.800;6.772;2023-12-20T07:40:44;96284.56;;;-144.06;27.57
11017;BME280;54687;50.800;6.772;2023-12-20T07:43:10;96288.78;;;-144.06;27.52
11017;BME280;54687;50.800;6.772;2023-12-20T07:45:37;96326.91;;;-144.06;27.59
11017;BME280;54687;50.800;6.772;2023-12-20T07:48:06;96246.44;;;-144.06;27.51
11017;BME280;54687;50.800;6.772;2023-12-20T07:50:33;96242.19;;;-144.06;27.48
11017;BME280;54687;50.800;6.772;2023-12-20T07:53:00;96233.72;;;-144.06;27.67
11017;BME280;54687;50.800;6.772;2023-12-20T07:55:27;96335.38;;;-144.06;27.89
11017;BME280;54687;50.800;6.772;2023-12-20T07:57:53;96225.25;;;-144.06;27.71
11017;BME280;54687;50.800;6.772;2023-12-20T08:00:20;96227.38;;;-144.06;27.40
11017;BME280;54687;50.800;6.772;2023-12-20T08:02:47;96208.31;;;-144.06;27.52
11017;BME280;54687;50.800;6.772;2023-12-20T08:05:14;96221.03;;;-144.06;27.55
11017;BME280;54687;50.800;6.772;2023-12-20T08:07:41;96259.16;;;-144.06;27.40
11017;BME280;54687;50.800;6.772;2023-12-20T08:10:08;96199.84;;;-144.06;27.45
11017;BME280;54687;50.800;6.772;2023-12-20T08:12:35;96233.72;;;-144.06;27.59
11017;BME280;54687;50.800;6.772;2023-12-20T08:15:01;96261.25;;;-144.06;27.46
11017;BME280;54687;50.800;6.772;2023-12-20T08:17:29;96244.31;;;-144.06;27.44
11017;BME280;54687;50.800;6.772;2023-12-20T08:19:55;96314.22;;;-144.06;27.38
11017;BME280;54687;50.800;6.772;2023-12-20T08:22:23;96210.44;;;-144.06;27.55
11017;BME280;54687;50.800;6.772;2023-12-20T08:24:50;96208.31;;;-144.06;27.26
11017;BME280;54687;50.800;6.772;2023-12-20T08:27:17;96282.44;;;-144.06;27.30
11017;BME280;54687;50.800;6.772;2023-12-20T08:29:43;96284.56;;;-144.06;27.57
11017;BME280;54687;50.800;6.772;2023-12-20T08:32:10;96269.72;;;-144.06;27.35
11017;BME280;54687;50.800;6.772;2023-12-20T08:34:37;96246.44;;;-144.06;27.35
11017;BME280;54687;50.800;6.772;2023-12-20T08:37:03;96299.38;;;-144.06;27.59
11017;BME280;54687;50.800;6.772;2023-12-20T08:39:31;96242.19;;;-144.06;27.33
11017;BME280;54687;50.800;6.772;2023-12-20T08:41:58;96237.97;;;-144.06;27.45
11017;BME280;54687;50.800;6.772;2023-12-20T08:44:25;96233.72;;;-144.06;27.20
11017;BME280;54687;50.800;6.772;2023-12-20T08:46:52;96229.50;;;-144.06;27.42
11017;BME280;54687;50.800;6.772;2023-12-20T08:49:18;96185.03;;;-144.06;27.17
11017;BME280;54687;50.800;6.772;2023-12-20T08:51:45;96127.84;;;-144.06;27.23
11017;BME280;54687;50.800;6.772;2023-12-20T08:54:11;96237.97;;;-144.06;27.28
11017;BME280;54687;50.800;6.772;2023-12-20T08:56:39;96199.84;;;-144.06;27.19
11017;BME280;54687;50.800;6.772;2023-12-20T08:59:06;96140.56;;;-144.06;27.15
11017;BME280;54687;50.800;6.772;2023-12-20T09:01:33;96151.13;;;-144.06;26.94
11017;BME280;54687;50.800;6.772;2023-12-20T09:03:59;96072.78;;;-144.06;26.84
11017;BME280;54687;50.800;6.772;2023-12-20T09:06:26;96072.78;;;-144.06;26.93
11017;BME280;54687;50.800;6.772;2023-12-20T09:08:52;96019.84;;;-144.06;26.57
11017;BME280;54687;50.800;6.772;2023-12-20T09:11:19;96093.97;;;-144.06;26.74
11017;BME280;54687;50.800;6.772;2023-12-20T09:13:47;96119.38;;;-144.06;26.68
11017;BME280;54687;50.800;6.772;2023-12-20T09:16:14;96011.38;;;-144.06;26.78
11017;BME280;54687;50.800;6.772;2023-12-20T09:18:41;96034.66;;;-144.06;26.62
11017;BME280;54687;50.800;6.772;2023-12-20T09:21:07;96106.66;;;-144.06;26.86
11017;BME280;54687;50.800;6.772;2023-12-20T09:23:34;96119.38;;;-144.06;26.83
11017;BME280;54687;50.800;6.772;2023-12-20T09:26:02;96021.97;;;-144.06;26.87
11017;BME280;54687;50.800;6.772;2023-12-20T09:28:29;96041.03;;;-144.06;26.78
11017;BME280;54687;50.800;6.772;2023-12-20T09:30:57;96030.44;;;-144.06;26.67
11017;BME280;54687;50.800;6.772;2023-12-20T09:33:23;96015.59;;;-144.06;26.67
11017;BME280;54687;50.800;6.772;2023-12-20T09:35:50;96034.66;;;-144.06;26.62
11017;BME280;54687;50.800;6.772;2023-12-20T09:38:17;96144.78;;;-144.06;26.94
11017;BME280;54687;50.800;6.772;2023-12-20T09:40:43;96068.53;;;-144.06;26.89
11017;BME280;54687;50.800;6.772;2023-12-20T09:43:13;96062.19;;;-144.06;26.96
11017;BME280;54687;50.800;6.772;2023-12-20T09:45:41;95998.66;;;-144.06;26.88
11017;BME280;54687;50.800;6.772;2023-12-20T09:48:10;96060.06;;;-144.06;26.81
11017;BME280;54687;50.800;6.772;2023-12-20T09:50:37;96043.13;;;-144.06;26.69
11017;BME280;54687;50.800;6.772;2023-12-20T09:53:05;96096.06;;;-144.06;26.87
11017;BME280;54687;50.800;6.772;2023-12-20T09:55:35;96019.84;;;-144.06;26.95
11017;BME280;54687;50.800;6.772;2023-12-20T09:58:02;96038.91;;;-144.06;26.77
11017;BME280;54687;50.800;6.772;2023-12-20T10:00:29;96110.91;;;-144.06;26.88
11017;BME280;54687;50.800;6.772;2023-12-20T10:02:57;96087.59;;;-144.06;26.75
11017;BME280;54687;50.800;6.772;2023-12-20T10:05:27;95992.31;;;-144.06;26.70
11017;BME280;54687;50.800;6.772;2023-12-20T10:07:54;96085.50;;;-144.06;26.80
11017;BME280;54687;50.800;6.772;2023-12-20T10:10:21;96055.84;;;-144.06;26.80
11017;BME280;54687;50.800;6.772;2023-12-20T10:13:01;96093.97;;;-144.06;26.82
11017;BME280;54687;50.800;6.772;2023-12-20T10:15:28;96102.44;;;-144.06;26.82
11017;BME280;54687;50.800;6.772;2023-12-20T10:17:54;95992.31;;;-144.06;27.11
11017;BME280;54687;50.800;6.772;2023-12-20T10:20:21;96000.78;;;-144.06;26.66
11017;BME280;54687;50.800;6.772;2023-12-20T10:22:49;95954.19;;;-144.06;26.54
11017;BME280;54687;50.800;6.772;2023-12-20T10:25:19;95865.25;;;-144.06;26.77
11017;BME280;54687;50.800;6.772;2023-12-20T10:27:46;95924.56;;;-144.06;26.72
11017;BME280;54687;50.800;6.772;2023-12-20T10:30:13;95937.25;;;-144.06;26.69
11017;BME280;54687;50.800;6.772;2023-12-20T10:32:41;95981.72;;;-144.06;26.75
11017;BME280;54687;50.800;6.772;2023-12-20T10:35:08;96000.78;;;-144.06;26.87
11017;BME280;54687;50.800;6.772;2023-12-20T10:37:35;95899.13;;;-144.06;26.53
11017;BME280;54687;50.800;6.772;2023-12-20T10:40:05;95920.31;;;-144.06;26.49
11017;BME280;54687;50.800;6.772;2023-12-20T10:42:32;96034.66;;;-144.06;26.68
11017;BME280;54687;50.800;6.772;2023-12-20T10:44:59;95954.19;;;-144.06;26.81
11017;BME280;54687;50.800;6.772;2023-12-20T10:47:27;96028.31;;;-144.06;26.66
11017;BME280;54687;50.800;6.772;2023-12-20T10:49:54;96005.00;;;-144.06;26.65
11017;BME280;54687;50.800;6.772;2023-12-20T10:52:23;95956.31;;;-144.06;26.88
11017;BME280;54687;50.800;6.772;2023-12-20T10:54:49;95920.31;;;-144.06;26.41
11017;BME280;54687;50.800;6.772;2023-12-20T10:57:18;95930.91;;;-144.06;26.44
11017;BME280;54687;50.800;6.772;2023-12-20T10:59:45;95884.31;;;-144.06;26.41
11017;BME280;54687;50.800;6.772;2023-12-20T11:02:13;95935.13;;;-144.06;26.40
11017;BME280;54687;50.800;6.772;2023-12-20T11:04:46;95928.78;;;-144.06;26.48
11017;BME280;54687;50.800;6.772;2023-12-20T11:07:19;95928.78;;;-144.06;26.69
11017;BME280;54687;50.800;6.772;2023-12-20T11:09:56;95907.59;;;-144.06;26.17
11017;BME280;54687;50.800;6.772;2023-12-20T11:12:34;95877.97;;;-144.06;26.15
11017;BME280;54687;50.800;6.772;2023-12-20T11:15:02;95909.72;;;-144.06;26.59
11017;BME280;54687;50.800;6.772;2023-12-20T11:17:31;95814.44;;;-144.06;26.20
11017;BME280;54687;50.800;6.772;2023-12-20T11:20:06;95916.06;;;-144.06;26.23
11017;BME280;54687;50.800;6.772;2023-12-20T11:22:34;95949.97;;;-144.06;26.33
11017;BME280;54687;50.800;6.772;2023-12-20T11:25:04;95886.44;;;-144.06;26.25
11017;BME280;54687;50.800;6.772;2023-12-20T11:27:33;95907.59;;;-144.06;26.52
11017;BME280;54687;50.800;6.772;2023-12-20T11:30:02;95990.19;;;-144.06;26.62
11017;BME280;54687;50.800;6.772;2023-12-20T11:32:31;95988.06;;;-144.06;26.49
11017;BME280;54687;50.800;6.772;2023-12-20T11:35:01;95913.97;;;-144.06;26.30
11017;BME280;54687;50.800;6.772;2023-12-20T11:37:42;95886.44;;;-144.06;26.57
11017;BME280;54687;50.800;6.772;2023-12-20T11:40:11;96066.44;;;-144.06;26.80
11017;BME280;54687;50.800;6.772;2023-12-20T11:42:41;95964.78;;;-144.06;26.40
11017;BME280;54687;50.800;6.772;2023-12-20T11:45:09;95933.03;;;-144.06;26.54
11017;BME280;54687;50.800;6.772;2023-12-20T11:47:36;95867.38;;;-144.06;26.22
11017;BME280;54687;50.800;6.772;2023-12-20T11:50:03;95829.25;;;-144.06;26.37
11017;BME280;54687;50.800;6.772;2023-12-20T11:52:30;95856.78;;;-144.06;26.29
11017;BME280;54687;50.800;6.772;2023-12-20T11:54:57;95808.09;;;-144.06;26.52
11017;BME280;54687;50.800;6.772;2023-12-20T11:57:24;95784.78;;;-144.06;26.32
11017;BME280;54687;50.800;6.772;2023-12-20T11:59:52;95748.78;;;-144.06;26.13
11017;BME280;54687;50.800;6.772;2023-12-20T12:02:19;95791.16;;;-144.06;26.40
11017;BME280;54687;50.800;6.772;2023-12-20T12:04:48;95839.84;;;-144.06;26.26
11017;BME280;54687;50.800;6.772;2023-12-20T12:07:16;95793.25;;;-144.06;26.10
11017;BME280;54687;50.800;6.772;2023-12-20T12:09:42;95850.44;;;-144.06;26.20
11017;BME280;54687;50.800;6.772;2023-12-20T12:12:09;95808.09;;;-144.06;26.08
11017;BME280;54687;50.800;6.772;2023-12-20T12:14:37;95875.84;;;-144.06;26.37
11017;BME280;54687;50.800;6.772;2023-12-20T12:17:10;95966.91;;;-144.06;26.59
11017;BME280;54687;50.800;6.772;2023-12-20T12:19:37;95880.06;;;-144.06;26.32
11017;BME280;54687;50.800;6.772;2023-12-20T12:22:07;95877.97;;;-144.06;26.57
11017;BME280;54687;50.800;6.772;2023-12-20T12:24:36;95873.72;;;-144.06;26.25
11017;BME280;54687;50.800;6.772;2023-12-20T12:27:05;95814.44;;;-144.06;26.08
11017;BME280;54687;50.800;6.772;2023-12-20T12:29:32;95814.44;;;-144.06;26.36
11017;BME280;54687;50.800;6.772;2023-12-20T12:31:58;95837.72;;;-144.06;26.12
11017;BME280;54687;50.800;6.772;2023-12-20T12:34:28;95886.44;;;-144.06;26.30
11017;BME280;54687;50.800;6.772;2023-12-20T12:36:55;95930.91;;;-144.06;26.74
11017;BME280;54687;50.800;6.772;2023-12-20T12:39:23;95831.38;;;-144.06;26.38
11017;BME280;54687;50.800;6.772;2023-12-20T12:41:51;95899.13;;;-144.06;26.69